Terminal Aerodrome Forecast
Issued by NWS Binghamton, NY

Home | Current Version | Previous Version | Text Only | Print | Product List | Glossary On
Versions: 1 2 3 4 5 6 7 8 9 10 11 12 13 14 15 16 17
000
FTUS41 KBGM 252335
TAFSYR
TAF
KSYR 252335Z 2600/2624 23005KT P6SM BKN060
      TEMPO 2602/2604 4SM TSRA OVC025CB
     FM260400 20004KT P6SM OVC040
      TEMPO 2604/2606 4SM -SHRA OVC025
     FM260700 25005KT P6SM OVC025
     FM261300 29007KT P6SM SCT070=

USA.gov is the U.S. government's official web portal to all federal, state and local government web resources and services.